Time;durP1;ratioP1;P1;durP2;ratioP2;P2;SDS_P1;SDS_P2;PMS_P1;PMS_P2;Temp;Humidity;BMP_temperature;BMP_pressure;BME280_temperature;BME280_humidity;BME280_pressure;Samples;Min_cycle;Max_cycle;Signal;HPM_P1;HPM_P2
2022/05/26 00:02:14;;;;;;;;;;;;;;;-144.99;100.00;52338.03;4962306;28;19936;-74
2022/05/26 00:04:41;;;;;;;;;;;;;;;-144.99;100.00;52301.34;4960585;28;19927;-76
2022/05/26 00:07:08;;;;;;;;;;;;;;;-144.99;100.00;52305.41;4967657;28;19926;-73
2022/05/26 00:09:34;;;;;;;;;;;;;;;-144.99;100.00;52315.59;4960348;28;19926;-74
2022/05/26 00:12:01;;;;;;;;;;;;;;;-144.99;100.00;52289.13;4966307;28;19934;-72
2022/05/26 00:14:27;;;;;;;;;;;;;;;-144.99;100.00;52305.41;4963188;28;20357;-72
2022/05/26 00:16:54;;;;;;;;;;;;;;;-144.99;100.00;52346.19;4965433;28;19926;-74
2022/05/26 00:19:20;;;;;;;;;;;;;;;-144.99;100.00;52346.19;4965960;28;19937;-73
2022/05/26 00:21:49;;;;;;;;;;;;;;;-144.99;100.00;52313.56;4961654;28;20017;-73
2022/05/26 00:24:17;;;;;;;;;;;;;;;-144.99;100.00;52313.56;4960615;28;19933;-72
2022/05/26 00:26:43;;;;;;;;;;;;;;;-144.99;100.00;52370.63;4969592;28;20414;-71
2022/05/26 00:29:09;;;;;;;;;;;;;;;-144.99;100.00;52309.50;4968537;28;19933;-71
2022/05/26 00:31:36;;;;;;;;;;;;;;;-144.99;100.00;52329.88;4965520;28;19938;-73
2022/05/26 00:34:02;;;;;;;;;;;;;;;-144.99;100.00;52305.41;4969550;28;19926;-73
2022/05/26 00:36:43;;;;;;;;;;;;;;;-144.99;100.00;52317.66;4973226;28;19933;-72
2022/05/26 00:39:11;;;;;;;;;;;;;;;-144.99;100.00;52289.13;4972479;28;20377;-72
2022/05/26 00:41:42;;;;;;;;;;;;;;;-144.99;100.00;52299.31;4970306;28;19934;-72
2022/05/26 00:44:09;;;;;;;;;;;;;;;-144.99;100.00;52348.22;4974461;28;19926;-73
2022/05/26 00:46:38;;;;;;;;;;;;;;;-144.99;100.00;52342.09;4973640;28;19926;-73
2022/05/26 00:49:05;;;;;;;;;;;;;;;-144.99;100.00;52348.22;4966979;28;19926;-72
2022/05/26 00:51:33;;;;;;;;;;;;;;;-144.99;100.00;52342.09;4963707;28;19933;-72
2022/05/26 00:54:02;;;;;;;;;;;;;;;-144.99;100.00;52305.41;4969179;28;20306;-71
2022/05/26 00:56:34;;;;;;;;;;;;;;;-144.99;100.00;52346.19;4970252;28;19931;-70
2022/05/26 00:59:06;;;;;;;;;;;;;;;-144.99;100.00;52325.81;4968359;28;19926;-71
2022/05/26 01:01:32;;;;;;;;;;;;;;;-144.99;100.00;52338.03;4970233;28;20325;-70
2022/05/26 01:04:01;;;;;;;;;;;;;;;-144.99;100.00;52350.25;4969394;28;19934;-72
2022/05/26 01:06:30;;;;;;;;;;;;;;;-144.99;100.00;52350.25;4968734;28;19950;-71
2022/05/26 01:08:57;;;;;;;;;;;;;;;-144.99;100.00;52301.34;4964938;28;19934;-71
2022/05/26 01:11:24;;;;;;;;;;;;;;;-144.99;100.00;52331.91;4966312;28;19934;-70
2022/05/26 01:13:54;;;;;;;;;;;;;;;-144.99;100.00;52342.09;4967810;28;19997;-70
2022/05/26 01:16:24;;;;;;;;;;;;;;;-144.99;100.00;52362.50;4966736;28;20313;-71
2022/05/26 01:18:57;;;;;;;;;;;;;;;-144.99;100.00;52317.66;4963476;28;19927;-72
2022/05/26 01:21:27;;;;;;;;;;;;;;;-144.99;100.00;52309.50;4968685;28;19933;-74
2022/05/26 01:24:07;;;;;;;;;;;;;;;-144.99;100.00;52333.94;4967193;28;19930;-73
2022/05/26 01:26:54;;;;;;;;;;;;;;;-144.99;100.00;52315.59;4964997;28;19933;-72
2022/05/26 01:29:36;;;;;;;;;;;;;;;-144.99;100.00;52301.34;4962443;28;20603;-72
2022/05/26 01:32:08;;;;;;;;;;;;;;;-144.99;100.00;52313.56;4966790;28;20386;-72
2022/05/26 01:34:42;;;;;;;;;;;;;;;-144.99;100.00;52333.94;4971365;28;19969;-76
2022/05/26 01:37:12;;;;;;;;;;;;;;;-144.99;100.00;52329.88;4961930;28;20013;-72
2022/05/26 01:39:45;;;;;;;;;;;;;;;-144.99;100.00;52260.56;4970400;28;19981;-74
2022/05/26 01:42:16;;;;;;;;;;;;;;;-144.99;100.00;52301.34;4967865;28;20429;-73
2022/05/26 01:44:48;;;;;;;;;;;;;;;-144.99;100.00;52313.56;4969771;28;20020;-72
2022/05/26 01:47:19;;;;;;;;;;;;;;;-144.99;100.00;52325.81;4962322;28;19941;-72
2022/05/26 01:49:49;;;;;;;;;;;;;;;-144.99;100.00;52313.56;4959985;28;20433;-72
2022/05/26 01:52:17;;;;;;;;;;;;;;;-144.99;100.00;52338.03;4960308;28;19930;-72
2022/05/26 01:54:47;;;;;;;;;;;;;;;-144.99;100.00;52342.09;4965682;28;19930;-72
2022/05/26 01:57:15;;;;;;;;;;;;;;;-144.99;100.00;52280.97;4964276;28;19948;-72
2022/05/26 01:59:44;;;;;;;;;;;;;;;-144.99;100.00;52354.34;4960407;28;19927;-70
2022/05/26 02:02:12;;;;;;;;;;;;;;;-144.99;100.00;52317.66;4964756;28;19933;-72
2022/05/26 02:04:42;;;;;;;;;;;;;;;-144.99;100.00;52325.81;4958420;28;19926;-71
2022/05/26 02:07:21;;;;;;;;;;;;;;;-144.99;100.00;52317.66;4971774;28;19926;-73
2022/05/26 02:09:49;;;;;;;;;;;;;;;-144.99;100.00;52313.56;4967534;28;19985;-71
2022/05/26 02:12:20;;;;;;;;;;;;;;;-144.99;100.00;52317.66;4966816;28;19926;-74
2022/05/26 02:14:48;;;;;;;;;;;;;;;-144.99;100.00;52303.38;4966116;28;19930;-72
2022/05/26 02:17:16;;;;;;;;;;;;;;;-144.99;100.00;52329.88;4963708;28;19938;-72
2022/05/26 02:19:46;;;;;;;;;;;;;;;-144.99;100.00;52305.41;4962975;28;19933;-72
2022/05/26 02:22:17;;;;;;;;;;;;;;;-144.99;100.00;52285.03;4968082;28;19930;-71
2022/05/26 02:24:46;;;;;;;;;;;;;;;-144.99;100.00;52299.31;4967959;28;20008;-72
2022/05/26 02:27:13;;;;;;;;;;;;;;;-144.99;100.00;52329.88;4964960;28;19949;-73
2022/05/26 02:29:56;;;;;;;;;;;;;;;-144.99;100.00;52325.81;4968041;28;19926;-72
2022/05/26 02:32:24;;;;;;;;;;;;;;;-144.99;100.00;52336.00;4966597;28;20031;-70
2022/05/26 02:34:53;;;;;;;;;;;;;;;-144.99;100.00;52313.56;4962186;28;20318;-72
2022/05/26 02:37:20;;;;;;;;;;;;;;;-144.99;100.00;52325.81;4965365;28;20390;-72
2022/05/26 02:39:47;;;;;;;;;;;;;;;-144.99;100.00;52342.09;4965983;28;20476;-71
2022/05/26 02:42:13;;;;;;;;;;;;;;;-144.99;100.00;52329.88;4964240;28;19985;-72
2022/05/26 02:44:41;;;;;;;;;;;;;;;-144.99;100.00;52305.41;4962516;28;19930;-72
2022/05/26 02:47:23;;;;;;;;;;;;;;;-144.99;100.00;52313.56;4961154;28;19938;-73
2022/05/26 02:50:08;;;;;;;;;;;;;;;-144.99;100.00;52338.03;4964920;28;20420;-72
2022/05/26 02:52:40;;;;;;;;;;;;;;;-144.99;100.00;52301.34;4966974;28;22016;-72
2022/05/26 02:55:14;;;;;;;;;;;;;;;-144.99;100.00;52329.88;4965053;28;19941;-71
2022/05/26 02:57:43;;;;;;;;;;;;;;;-144.99;100.00;52325.81;4965736;28;20376;-71
2022/05/26 03:00:14;;;;;;;;;;;;;;;-144.99;100.00;52319.69;4961238;28;19981;-72
2022/05/26 03:02:46;;;;;;;;;;;;;;;-144.99;100.00;52378.78;4967390;28;20347;-72
2022/05/26 03:05:16;;;;;;;;;;;;;;;-144.99;100.00;52305.41;4964257;28;19933;-72
2022/05/26 03:07:44;;;;;;;;;;;;;;;-144.99;100.00;52321.72;4964317;28;20535;-73
2022/05/26 03:10:11;;;;;;;;;;;;;;;-144.99;100.00;52340.06;4970664;28;20322;-73
2022/05/26 03:12:37;;;;;;;;;;;;;;;-144.99;100.00;52333.94;4965835;28;19930;-72
2022/05/26 03:15:06;;;;;;;;;;;;;;;-144.99;100.00;52325.81;4959130;28;19926;-71
2022/05/26 03:17:32;;;;;;;;;;;;;;;-144.99;100.00;52313.56;4961628;28;19933;-73
2022/05/26 03:19:58;;;;;;;;;;;;;;;-144.99;100.00;52338.03;4968149;28;19937;-71
2022/05/26 03:22:26;;;;;;;;;;;;;;;-144.99;100.00;52336.00;4969171;28;20313;-72
2022/05/26 03:24:53;;;;;;;;;;;;;;;-144.99;100.00;52333.94;4967813;28;19933;-71
2022/05/26 03:27:20;;;;;;;;;;;;;;;-144.99;100.00;52358.41;4966134;28;19933;-70
2022/05/26 03:29:46;;;;;;;;;;;;;;;-144.99;100.00;52317.66;4971787;28;19930;-70
2022/05/26 03:32:12;;;;;;;;;;;;;;;-144.99;100.00;52305.41;4980660;23;20333;-69
2022/05/26 03:42:53;;;;;;;;;;;;;;;-144.99;100.00;52358.41;4965952;28;20024;-74
2022/05/26 03:45:20;;;;;;;;;;;;;;;-144.99;100.00;52364.53;4965335;28;19930;-75
2022/05/26 03:47:46;;;;;;;;;;;;;;;-144.99;100.00;52338.03;4960696;28;19949;-74
2022/05/26 03:50:13;;;;;;;;;;;;;;;-144.99;100.00;52321.72;4965534;28;20928;-75
2022/05/26 03:52:39;;;;;;;;;;;;;;;-144.99;100.00;52319.69;4963395;28;19941;-75
2022/05/26 03:55:08;;;;;;;;;;;;;;;-144.99;100.00;52336.00;4967977;28;19926;-74
2022/05/26 03:57:36;;;;;;;;;;;;;;;-144.99;100.00;52313.56;4963226;28;19934;-75
2022/05/26 04:00:03;;;;;;;;;;;;;;;-144.99;100.00;52309.50;4962707;28;19989;-76
2022/05/26 04:02:30;;;;;;;;;;;;;;;-144.99;100.00;52309.50;4963095;28;19927;-74
2022/05/26 04:04:56;;;;;;;;;;;;;;;-144.99;100.00;52333.94;4964194;28;19934;-75
2022/05/26 04:07:22;;;;;;;;;;;;;;;-144.99;100.00;52358.41;4967548;28;20621;-75
2022/05/26 04:09:49;;;;;;;;;;;;;;;-144.99;100.00;52354.34;4963407;28;19938;-74
2022/05/26 04:12:18;;;;;;;;;;;;;;;-144.99;100.00;52329.88;4961595;28;19930;-72
2022/05/26 04:14:44;;;;;;;;;;;;;;;-144.99;100.00;52317.66;4962125;28;19980;-72
2022/05/26 04:17:11;;;;;;;;;;;;;;;-144.99;100.00;52295.22;4965667;28;19938;-71
2022/05/26 04:19:41;;;;;;;;;;;;;;;-144.99;100.00;52317.66;4962977;28;19965;-73
2022/05/26 04:22:16;;;;;;;;;;;;;;;-144.99;100.00;52313.56;4962753;28;19970;-73
2022/05/26 04:24:42;;;;;;;;;;;;;;;-144.99;100.00;52293.19;4967201;28;20036;-72
2022/05/26 04:27:09;;;;;;;;;;;;;;;-144.99;100.00;52362.50;4962905;28;20409;-72
2022/05/26 04:29:37;;;;;;;;;;;;;;;-144.99;100.00;52333.94;4966905;28;19926;-73
2022/05/26 04:32:04;;;;;;;;;;;;;;;-144.99;100.00;52333.94;4965352;28;19930;-73
2022/05/26 04:34:30;;;;;;;;;;;;;;;-144.99;100.00;52323.75;4964060;28;19939;-73
2022/05/26 04:36:56;;;;;;;;;;;;;;;-144.99;100.00;52313.56;4963834;28;19961;-72
2022/05/26 04:39:23;;;;;;;;;;;;;;;-144.99;100.00;52370.63;4966102;28;19930;-72
2022/05/26 04:41:49;;;;;;;;;;;;;;;-144.99;100.00;52327.84;4963120;28;19981;-73
2022/05/26 04:44:17;;;;;;;;;;;;;;;-144.99;100.00;52338.03;4964782;28;20306;-72
2022/05/26 04:46:44;;;;;;;;;;;;;;;-144.99;100.00;52309.50;4963509;28;19934;-72
2022/05/26 04:49:11;;;;;;;;;;;;;;;-144.99;100.00;52317.66;4957074;28;19930;-72
2022/05/26 04:51:38;;;;;;;;;;;;;;;-144.99;100.00;52350.25;4959481;28;19934;-72
2022/05/26 04:54:05;;;;;;;;;;;;;;;-144.99;100.00;52356.38;4962123;28;19930;-72
2022/05/26 04:56:32;;;;;;;;;;;;;;;-144.99;100.00;52301.34;4963485;28;20296;-73
2022/05/26 04:58:58;;;;;;;;;;;;;;;-144.99;100.00;52325.81;4963861;28;19933;-73
2022/05/26 05:01:24;;;;;;;;;;;;;;;-144.99;100.00;52295.22;4957513;28;19933;-73
2022/05/26 05:03:52;;;;;;;;;;;;;;;-144.99;100.00;52293.19;4971798;28;19935;-72
2022/05/26 05:06:19;;;;;;;;;;;;;;;-144.99;100.00;52325.81;4968153;28;20127;-72
2022/05/26 05:08:45;;;;;;;;;;;;;;;-144.99;100.00;52317.66;4971755;28;19927;-72
2022/05/26 05:11:12;;;;;;;;;;;;;;;-144.99;100.00;52305.41;4966977;28;20006;-72
2022/05/26 05:13:39;;;;;;;;;;;;;;;-144.99;100.00;52315.59;4966866;28;19927;-73
2022/05/26 05:16:07;;;;;;;;;;;;;;;-144.99;100.00;52309.50;4970824;28;19957;-72
2022/05/26 05:18:33;;;;;;;;;;;;;;;-144.99;100.00;52321.72;4967741;28;19934;-72
2022/05/26 05:21:04;;;;;;;;;;;;;;;-144.99;100.00;52264.66;4967774;28;19930;-72
2022/05/26 05:23:31;;;;;;;;;;;;;;;-144.99;100.00;52317.66;4971652;28;19937;-71
2022/05/26 05:25:59;;;;;;;;;;;;;;;-144.99;100.00;52293.19;4967040;28;19933;-72
2022/05/26 05:28:28;;;;;;;;;;;;;;;-144.99;100.00;52301.34;4968161;28;19926;-71
2022/05/26 05:30:57;;;;;;;;;;;;;;;-144.99;100.00;52299.31;4967329;28;19958;-72
2022/05/26 05:33:26;;;;;;;;;;;;;;;-144.99;100.00;52321.72;4971090;28;19927;-72
2022/05/26 05:35:56;;;;;;;;;;;;;;;-144.99;99.72;52280.97;4970859;28;19929;-72
2022/05/26 05:38:24;;;;;;;;;;;;;;;-144.99;99.20;52301.34;4971893;28;19958;-72
2022/05/26 05:40:51;;;;;;;;;;;;;;;-144.99;98.03;52278.91;4965975;28;19930;-73
2022/05/26 05:43:17;;;;;;;;;;;;;;;-144.99;95.74;52276.88;4968562;28;19933;-72
2022/05/26 05:45:44;;;;;;;;;;;;;;;-144.99;94.60;52297.25;4964266;28;19934;-72
2022/05/26 05:48:10;;;;;;;;;;;;;;;-144.99;93.85;52293.19;4968294;28;20009;-72
2022/05/26 05:50:36;;;;;;;;;;;;;;;-144.99;93.03;52291.16;4965451;28;20390;-73
2022/05/26 05:53:03;;;;;;;;;;;;;;;-144.99;91.72;52266.69;4965774;28;19933;-73
2022/05/26 05:55:31;;;;;;;;;;;;;;;-144.99;89.56;52315.59;4962613;28;20164;-72
2022/05/26 05:57:57;;;;;;;;;;;;;;;-144.99;89.90;52291.16;4966620;28;20001;-74
2022/05/26 06:00:24;;;;;;;;;;;;;;;-144.99;89.88;52329.88;4965903;28;19937;-74
2022/05/26 06:02:50;;;;;;;;;;;;;;;-144.99;89.41;52321.72;4968120;28;19926;-74
2022/05/26 06:05:17;;;;;;;;;;;;;;;-144.99;89.25;52321.72;4961664;28;20325;-72
2022/05/26 06:07:43;;;;;;;;;;;;;;;-144.99;87.28;52256.50;4967213;28;20397;-73
2022/05/26 06:10:11;;;;;;;;;;;;;;;-144.99;86.43;52270.78;4964830;28;20002;-74
2022/05/26 06:12:39;;;;;;;;;;;;;;;-144.99;85.75;52325.81;4967711;28;19926;-73
2022/05/26 06:15:06;;;;;;;;;;;;;;;-144.99;85.80;52303.38;4965335;28;19926;-73
2022/05/26 06:17:32;;;;;;;;;;;;;;;-144.99;85.52;52342.09;4965290;28;20010;-73
2022/05/26 06:19:59;;;;;;;;;;;;;;;-144.99;83.39;52285.03;4964268;28;19926;-73
2022/05/26 06:22:25;;;;;;;;;;;;;;;-144.99;85.05;52309.50;4961385;28;19930;-74
2022/05/26 06:24:52;;;;;;;;;;;;;;;-144.99;86.33;52305.41;4968168;28;20391;-74
2022/05/26 06:30:07;;;;;;;;;;;;;;;-144.99;86.93;52317.66;4967166;28;19933;-73
2022/05/26 06:38:10;;;;;;;;;;;;;;;-144.99;85.41;52329.88;4967779;28;19953;-74
2022/05/26 06:40:37;;;;;;;;;;;;;;;-144.99;80.63;52317.66;4964124;28;19933;-74
2022/05/26 06:43:03;;;;;;;;;;;;;;;-144.99;79.57;52301.34;4966341;28;19926;-74
2022/05/26 06:45:31;;;;;;;;;;;;;;;-144.99;78.66;52305.41;4965847;28;19954;-74
2022/05/26 06:47:57;;;;;;;;;;;;;;;-144.99;76.13;52280.97;4967244;28;19927;-74
2022/05/26 06:50:24;;;;;;;;;;;;;;;-144.99;74.97;52285.03;4966632;28;20028;-73
2022/05/26 06:52:51;;;;;;;;;;;;;;;-144.99;75.38;52301.34;4968067;28;19926;-74
2022/05/26 06:55:17;;;;;;;;;;;;;;;-144.99;73.30;52280.97;4966228;28;20657;-74
2022/05/26 06:57:44;;;;;;;;;;;;;;;-144.99;72.43;52293.19;4964770;28;19926;-74
2022/05/26 07:00:12;;;;;;;;;;;;;;;-144.99;69.84;52285.03;4966347;28;19926;-72
2022/05/26 07:02:41;;;;;;;;;;;;;;;-144.99;67.20;52268.72;4966407;28;19932;-72
2022/05/26 07:05:08;;;;;;;;;;;;;;;-144.99;64.82;52283.00;4959971;28;20021;-73
2022/05/26 07:07:35;;;;;;;;;;;;;;;-144.99;65.07;52260.56;4965920;28;20362;-73
2022/05/26 07:10:02;;;;;;;;;;;;;;;-144.99;64.33;52285.03;4964749;28;19934;-72
2022/05/26 07:12:29;;;;;;;;;;;;;;;-144.99;62.85;52287.06;4963696;28;19926;-71
2022/05/26 07:14:55;;;;;;;;;;;;;;;-144.99;62.17;52309.50;4964965;28;19926;-72
2022/05/26 07:17:21;;;;;;;;;;;;;;;-144.99;62.53;52276.88;4965302;28;20110;-74
2022/05/26 07:19:50;;;;;;;;;;;;;;;-144.99;61.10;52293.19;4965017;28;19926;-74
2022/05/26 07:22:16;;;;;;;;;;;;;;;-144.99;60.27;52280.97;4960878;28;19936;-75
2022/05/26 07:24:42;;;;;;;;;;;;;;;-144.99;60.66;52254.47;4966313;28;20145;-74
2022/05/26 07:27:09;;;;;;;;;;;;;;;-144.99;60.70;52256.50;4966208;28;19934;-73
2022/05/26 07:29:35;;;;;;;;;;;;;;;-144.99;59.06;52256.50;4969059;28;19934;-73
2022/05/26 07:32:03;;;;;;;;;;;;;;;-144.99;58.46;52280.97;4967248;28;19991;-74
2022/05/26 07:34:29;;;;;;;;;;;;;;;-144.99;59.08;52276.88;4962418;28;20024;-74
2022/05/26 07:42:27;;;;;;;;;;;;;;;-144.99;54.68;52236.13;4964559;28;19963;-74
2022/05/26 07:44:54;;;;;;;;;;;;;;;-144.99;53.86;52252.44;4966590;28;19937;-73
2022/05/26 07:47:22;;;;;;;;;;;;;;;-144.99;53.61;52272.81;4961267;28;19978;-73
2022/05/26 07:49:49;;;;;;;;;;;;;;;-144.99;53.53;52256.50;4965335;28;19941;-73
2022/05/26 07:52:16;;;;;;;;;;;;;;;-144.99;54.20;52227.97;4968568;28;19930;-73
2022/05/26 07:54:43;;;;;;;;;;;;;;;-144.99;54.37;52289.13;4969846;28;20283;-73
2022/05/26 07:57:13;;;;;;;;;;;;;;;-144.99;54.77;52248.34;4969209;28;19926;-73
2022/05/26 07:59:39;;;;;;;;;;;;;;;-144.99;53.24;52276.88;4967398;28;19926;-73
2022/05/26 08:02:07;;;;;;;;;;;;;;;-144.99;52.03;52280.97;4965220;28;19961;-73
2022/05/26 08:04:33;;;;;;;;;;;;;;;-144.99;51.72;52248.34;4965841;28;19937;-72
2022/05/26 08:07:00;;;;;;;;;;;;;;;-144.99;52.02;52276.88;4962719;28;19932;-73
2022/05/26 08:09:28;;;;;;;;;;;;;;;-144.99;52.91;52285.03;4967250;28;20362;-73
2022/05/26 08:11:54;;;;;;;;;;;;;;;-144.99;52.35;52262.63;4965197;28;19948;-73
2022/05/26 08:14:20;;;;;;;;;;;;;;;-144.99;52.48;52321.72;4964378;28;19933;-73
2022/05/26 08:16:47;;;;;;;;;;;;;;;-144.99;51.61;52293.19;4964760;28;19926;-73
2022/05/26 08:19:14;;;;;;;;;;;;;;;-144.99;50.95;52299.31;4964021;28;20425;-73
2022/05/26 08:21:40;;;;;;;;;;;;;;;-144.99;51.80;52252.44;4961739;28;20271;-73
2022/05/26 08:24:07;;;;;;;;;;;;;;;-144.99;51.21;52276.88;4965955;28;20074;-73
2022/05/26 08:26:34;;;;;;;;;;;;;;;-144.99;50.82;52244.28;4962098;28;19926;-74
2022/05/26 08:29:01;;;;;;;;;;;;;;;-144.99;49.91;52248.34;4967532;28;19933;-73
2022/05/26 08:31:27;;;;;;;;;;;;;;;-144.99;49.97;52240.19;4962387;28;20011;-71
2022/05/26 08:33:54;;;;;;;;;;;;;;;-144.99;50.90;52254.47;4964558;28;20411;-73
2022/05/26 08:36:21;;;;;;;;;;;;;;;-144.99;49.42;52232.03;4965670;28;19926;-72
2022/05/26 08:38:47;;;;;;;;;;;;;;;-144.99;49.15;52252.44;4965052;28;19941;-73
2022/05/26 08:41:16;;;;;;;;;;;;;;;-144.99;50.52;52242.22;4962337;28;19930;-73
2022/05/26 08:43:45;;;;;;;;;;;;;;;-144.99;50.72;52236.13;4965566;28;20355;-74
2022/05/26 08:46:13;;;;;;;;;;;;;;;-144.99;49.60;52244.28;4965862;28;19942;-74
2022/05/26 08:48:43;;;;;;;;;;;;;;;-144.99;49.97;52244.28;4969874;28;19930;-73
2022/05/26 08:51:12;;;;;;;;;;;;;;;-144.99;50.58;52276.88;4966554;28;19927;-74
2022/05/26 08:53:39;;;;;;;;;;;;;;;-144.99;50.25;52295.22;4968918;28;19934;-75
2022/05/26 08:56:09;;;;;;;;;;;;;;;-144.99;50.97;52264.66;4966438;28;19956;-74
2022/05/26 08:58:38;;;;;;;;;;;;;;;-144.99;50.43;52236.13;4967432;28;19948;-75
2022/05/26 09:01:07;;;;;;;;;;;;;;;-144.99;49.64;52293.19;4967884;28;20347;-75
2022/05/26 09:03:35;;;;;;;;;;;;;;;-144.99;49.82;52285.03;4966067;28;19932;-73
2022/05/26 09:06:07;;;;;;;;;;;;;;;-144.99;49.56;52293.19;4968606;28;20401;-74
2022/05/26 09:14:24;;;;;;;;;;;;;;;-144.99;47.67;52252.44;4966819;28;19937;-74
2022/05/26 09:16:56;;;;;;;;;;;;;;;-144.99;47.59;52264.66;4969699;28;19973;-74
2022/05/26 09:19:23;;;;;;;;;;;;;;;-144.99;47.46;52256.50;4972102;28;19937;-75
2022/05/26 09:21:50;;;;;;;;;;;;;;;-144.99;47.38;52278.91;4969827;28;19930;-75
2022/05/26 09:24:18;;;;;;;;;;;;;;;-144.99;47.51;52262.63;4971621;28;19926;-74
2022/05/26 09:26:46;;;;;;;;;;;;;;;-144.99;48.39;52258.53;4965884;28;19926;-74
2022/05/26 09:29:12;;;;;;;;;;;;;;;-144.99;47.29;52252.44;4967439;28;19976;-73
2022/05/26 09:31:45;;;;;;;;;;;;;;;-144.99;48.46;52285.03;4965372;28;20440;-74
2022/05/26 09:34:17;;;;;;;;;;;;;;;-144.99;46.92;52305.41;4990086;23;20334;-80
2022/05/26 09:36:45;;;;;;;;;;;;;;;-144.99;47.39;52232.03;4968238;28;19937;-76
2022/05/26 09:39:12;;;;;;;;;;;;;;;-144.99;46.66;52280.97;4980504;28;19965;-81
2022/05/26 09:41:40;;;;;;;;;;;;;;;-144.99;46.11;52258.53;4991663;28;19926;-75
2022/05/26 09:44:19;;;;;;;;;;;;;;;-144.99;45.41;52240.19;4972415;28;19926;-79
2022/05/26 09:46:49;;;;;;;;;;;;;;;-144.99;45.41;52203.50;4982248;28;19930;-77
2022/05/26 09:49:17;;;;;;;;;;;;;;;-144.99;44.98;52195.34;4987644;28;20036;-77
2022/05/26 09:51:46;;;;;;;;;;;;;;;-144.99;45.07;52199.44;4983977;28;19926;-79
2022/05/26 09:54:25;;;;;;;;;;;;;;;-144.99;44.29;52201.47;4987422;28;20412;-79
2022/05/26 09:56:52;;;;;;;;;;;;;;;-144.99;44.77;52244.28;4980158;28;20305;-78
2022/05/26 09:59:26;;;;;;;;;;;;;;;-144.99;45.15;52162.75;4997813;28;19930;-78
2022/05/26 10:01:57;;;;;;;;;;;;;;;-144.99;45.83;52207.59;4988446;28;20286;-75
2022/05/26 10:04:31;;;;;;;;;;;;;;;-144.99;45.30;52191.28;4987734;28;20317;-79
2022/05/26 10:06:59;;;;;;;;;;;;;;;-144.99;44.41;52197.41;4990739;28;19932;-78
2022/05/26 10:09:31;;;;;;;;;;;;;;;-144.99;44.08;52183.13;4985240;28;20060;-79
2022/05/26 10:12:01;;;;;;;;;;;;;;;-144.99;44.43;52154.59;4980696;28;19993;-77
2022/05/26 10:14:44;;;;;;;;;;;;;;;-144.99;44.70;52215.75;4985246;28;19926;-78
2022/05/26 10:17:19;;;;;;;;;;;;;;;-144.99;44.98;52146.44;4975869;28;19961;-79
2022/05/26 10:19:56;;;;;;;;;;;;;;;-144.99;44.52;52185.16;5001473;28;19930;-83
2022/05/26 10:22:28;;;;;;;;;;;;;;;-144.99;45.26;52117.91;4994607;28;19949;-79
2022/05/26 10:25:00;;;;;;;;;;;;;;;-144.99;45.03;52250.38;4991172;28;19930;-79
2022/05/26 10:27:31;;;;;;;;;;;;;;;-144.99;45.66;52207.59;4997711;28;19926;-81
2022/05/26 10:30:04;;;;;;;;;;;;;;;-144.99;46.15;52256.50;4995427;28;19926;-80
2022/05/26 10:32:36;;;;;;;;;;;;;;;-144.99;46.08;52232.03;4992642;28;19961;-78
2022/05/26 10:35:10;;;;;;;;;;;;;;;-144.99;46.31;52230.00;4996955;28;19930;-79
2022/05/26 10:37:44;;;;;;;;;;;;;;;-144.99;46.70;52258.53;4992008;28;19932;-79
2022/05/26 10:40:18;;;;;;;;;;;;;;;-144.99;46.65;52248.34;4994083;28;19933;-81
2022/05/26 10:42:48;;;;;;;;;;;;;;;-144.99;46.23;52219.81;4989879;28;19933;-79
2022/05/26 10:45:16;;;;;;;;;;;;;;;-144.99;46.08;52146.44;4994222;28;19964;-79
2022/05/26 10:47:47;;;;;;;;;;;;;;;-144.99;45.19;52219.81;4980646;28;19972;-80
2022/05/26 10:50:22;;;;;;;;;;;;;;;-144.99;43.64;52240.19;4987667;28;19926;-77
2022/05/26 10:52:52;;;;;;;;;;;;;;;-144.99;44.00;52215.75;4986257;28;19933;-75
2022/05/26 10:55:20;;;;;;;;;;;;;;;-144.99;43.95;52232.03;4985083;28;20402;-78
2022/05/26 10:57:50;;;;;;;;;;;;;;;-144.99;44.62;52276.88;4978159;28;20448;-77
2022/05/26 11:00:18;;;;;;;;;;;;;;;-144.99;44.92;52248.34;4996512;28;19998;-83
2022/05/26 11:02:51;;;;;;;;;;;;;;;-144.99;44.50;52262.63;4996630;28;20398;-77
2022/05/26 11:05:25;;;;;;;;;;;;;;;-144.99;44.95;52276.88;4985227;28;20415;-80
2022/05/26 11:07:53;;;;;;;;;;;;;;;-144.99;45.33;52264.66;4983003;28;19934;-78
2022/05/26 11:10:22;;;;;;;;;;;;;;;-144.99;45.44;52211.66;4980863;28;20001;-79
2022/05/26 11:12:49;;;;;;;;;;;;;;;-144.99;45.46;52199.44;4983151;28;19926;-77
2022/05/26 11:18:04;;;;;;;;;;;;;;;-144.99;44.30;52252.44;4983805;28;19948;-80
2022/05/26 11:20:36;;;;;;;;;;;;;;;-144.99;44.70;52227.97;4984198;28;19964;-79
2022/05/26 11:23:03;;;;;;;;;;;;;;;-144.99;44.27;52252.44;4982723;28;19935;-79
2022/05/26 11:25:30;;;;;;;;;;;;;;;-144.99;43.77;52134.22;4981632;28;19927;-77
2022/05/26 11:28:00;;;;;;;;;;;;;;;-144.99;42.96;52117.91;4977772;28;19926;-78
2022/05/26 11:36:09;;;;;;;;;;;;;;;-144.99;42.91;52205.53;4985047;28;19936;-80
2022/05/26 11:38:37;;;;;;;;;;;;;;;-144.99;43.25;52183.13;4980762;28;19930;-79
2022/05/26 11:41:04;;;;;;;;;;;;;;;-144.99;43.76;52223.88;4991276;28;20385;-78
2022/05/26 11:43:33;;;;;;;;;;;;;;;-144.99;43.55;52170.91;4987986;28;19933;-77
2022/05/26 11:46:00;;;;;;;;;;;;;;;-144.99;43.23;52221.84;4983757;28;19986;-79
2022/05/26 11:48:43;;;;;;;;;;;;;;;-144.99;43.61;52193.31;4974259;28;19995;-78
2022/05/26 11:51:28;;;;;;;;;;;;;;;-144.99;43.82;52207.59;4979141;28;20521;-78
2022/05/26 11:53:54;;;;;;;;;;;;;;;-144.99;43.51;52199.44;4996287;28;19949;-79
2022/05/26 11:56:50;;;;;;;;;;;;;;;-144.99;43.02;52158.66;4993796;28;19936;-78
2022/05/26 11:59:34;;;;;;;;;;;;;;;-144.99;43.29;52170.91;4976191;28;19933;-79
2022/05/26 12:02:14;;;;;;;;;;;;;;;-144.99;43.70;52166.81;4981676;28;19926;-81
2022/05/26 12:04:41;;;;;;;;;;;;;;;-144.99;43.55;52183.13;4981383;28;20013;-78
2022/05/26 12:07:32;;;;;;;;;;;;;;;-144.99;44.15;52207.59;4985691;28;19926;-77
2022/05/26 12:09:59;;;;;;;;;;;;;;;-144.99;44.66;52234.09;4981418;28;20323;-73
2022/05/26 12:12:30;;;;;;;;;;;;;;;-144.99;45.21;52276.88;4973532;28;19930;-75
2022/05/26 12:15:03;;;;;;;;;;;;;;;-144.99;45.90;52240.19;4977861;28;19965;-73
2022/05/26 12:17:32;;;;;;;;;;;;;;;-144.99;45.72;52236.13;4979285;28;20017;-78
2022/05/26 12:20:03;;;;;;;;;;;;;;;-144.99;46.81;52248.34;4981423;28;19926;-78
2022/05/26 12:22:32;;;;;;;;;;;;;;;-144.99;47.30;52244.28;4995987;28;19914;-81
2022/05/26 12:25:13;;;;;;;;;;;;;;;-144.99;47.51;52305.41;4977548;28;20025;-78
2022/05/26 12:28:00;;;;;;;;;;;;;;;-144.99;47.68;52266.69;4980582;28;20309;-79
2022/05/26 12:30:35;;;;;;;;;;;;;;;-144.99;48.15;52256.50;4987429;28;19935;-78
2022/05/26 12:33:23;;;;;;;;;;;;;;;-144.99;49.02;52285.03;4977182;28;19942;-78
2022/05/26 12:35:54;;;;;;;;;;;;;;;-144.99;49.14;52285.03;4972970;28;19937;-78
2022/05/26 12:38:28;;;;;;;;;;;;;;;-144.99;49.29;52238.16;4988831;28;19925;-79
2022/05/26 12:40:59;;;;;;;;;;;;;;;-144.99;48.44;52232.03;4976530;28;20421;-79
2022/05/26 12:43:37;;;;;;;;;;;;;;;-144.99;48.09;52268.72;4982673;28;19930;-79
2022/05/26 12:46:11;;;;;;;;;;;;;;;-144.99;47.70;52252.44;4980554;28;19929;-78
2022/05/26 12:48:51;;;;;;;;;;;;;;;-144.99;47.77;52260.56;4982207;28;19926;-79
2022/05/26 12:51:17;;;;;;;;;;;;;;;-144.99;47.13;52181.09;4971251;28;19937;-77
2022/05/26 12:53:50;;;;;;;;;;;;;;;-144.99;46.80;52260.56;4980664;28;19926;-79
2022/05/26 12:56:19;;;;;;;;;;;;;;;-144.99;47.43;52287.06;4981847;28;19941;-78
2022/05/26 12:58:49;;;;;;;;;;;;;;;-144.99;47.51;52223.88;4990475;28;19930;-78
2022/05/26 13:01:16;;;;;;;;;;;;;;;-144.99;48.04;52272.81;4998934;28;19926;-83
2022/05/26 13:03:44;;;;;;;;;;;;;;;-144.99;48.01;52272.81;4997798;28;20029;-79
2022/05/26 13:06:13;;;;;;;;;;;;;;;-144.99;47.93;52238.16;4981775;28;19926;-81
2022/05/26 13:08:46;;;;;;;;;;;;;;;-144.99;47.75;52236.13;4980816;28;19930;-78
2022/05/26 13:11:16;;;;;;;;;;;;;;;-144.99;46.88;52236.13;4976364;28;20544;-79